Olib — 9AA6266 — position and weather

sailwx.info

Track history (hours):
 
Tides and Currents Weather Stations Pressure Air Temp Water Temp Dewpoint Dewpoint Depression Visibility Wind Speed Wind Dir Waves Ship Positions

Olib

Last reported at 2016-Dec-07 05:31 UTC. Time now 2016-Dec-07 12:35 UTC.
Position N 55°09' E 011°00'.

Length 247 m; draft 15 m.

Type: Ship. MMSI: 238252000.

Date/timePositionNaut miles runAvg speedWind from/ knotsBaromVisibWave heightAir tempDewpointWater temp
2016-Dec-07 05:31N 55°09' E 011°00'1111.2
2016-Dec-07 04:33N 54°59' E 010°58'1211.6
2016-Dec-07 03:33N 54°48' E 010°50'9 9.5
2016-Dec-07 02:33N 54°39' E 010°52'1111.0
2016-Dec-07 01:33N 54°36' E 011°11'1111.3
2016-Dec-07 00:33N 54°31' E 011°28'1211.2
2016-Dec-06 23:27N 54°26' E 011°48'1011.2
2016-Dec-06 22:33N 54°26' E 012°05'9 9.2
2016-Dec-06 21:33N 54°34' E 012°15'7 6.8
2016-Dec-06 20:32N 54°39' E 012°23'11 5.6
2016-Dec-06 18:33N 54°45' E 012°40'43 8.7
2016-Dec-06 13:33N 55°01' E 013°49'1110.8
2016-Dec-06 12:33N 55°06' E 014°06'1110.3
2016-Dec-06 11:31N 55°14' E 014°17'1111.4
2016-Dec-06 10:33N 55°23' E 014°30'1110.8
2016-Dec-06 09:33N 55°30' E 014°45'1211.3
2016-Dec-06 08:32N 55°35' E 015°03'457 9.9
2016-Dec-04 10:31N 60°01' E 026°39'4210.5
2016-Dec-04 06:33N 60°10' E 028°00'1110.6
2016-Dec-04 05:33N 60°07' E 028°20'9 9.5
2016-Dec-04 04:33N 60°03' E 028°38'8 7.8
2016-Dec-04 03:33N 59°55' E 028°33'10 9.7
2016-Dec-04 02:33N 59°47' E 028°25'4 4.4
2016-Dec-04 01:33N 59°42' E 028°26'0 0.0
2016-Dec-04 00:33N 59°42' E 028°26'0 0.0
2016-Dec-03 23:33N 59°42' E 028°26'0 0.0
2016-Dec-03 22:33N 59°42' E 028°26'0 0.0
2016-Dec-03 21:33N 59°42' E 028°26'0 0.0
2016-Dec-03 20:24N 59°42' E 028°26'0 0.0
2016-Dec-03 19:24N 59°42' E 028°26'0 0.0
2016-Dec-03 18:27N 59°42' E 028°26'0 0.0
2016-Dec-03 17:27N 59°42' E 028°26'0 0.0
2016-Dec-03 16:27N 59°42' E 028°26'0 0.0
2016-Dec-03 15:30N 59°42' E 028°26'0 0.0
2016-Dec-03 14:30N 59°42' E 028°26'0 0.0
2016-Dec-03 13:30N 59°42' E 028°26'0 0.0
2016-Dec-03 12:33N 59°42' E 028°26'0 0.0
2016-Dec-03 10:18N 59°42' E 028°26'0 0.0
2016-Dec-03 09:21N 59°42' E 028°26'0 0.0
2016-Dec-03 07:24N 59°42' E 028°26'0 0.0
2016-Dec-03 06:24N 59°42' E 028°26'0 0.0
2016-Dec-03 05:24N 59°42' E 028°26'0 0.0
2016-Dec-03 04:24N 59°42' E 028°26'0 0.0
2016-Dec-03 03:27N 59°42' E 028°26'0 0.0
2016-Dec-03 02:27N 59°42' E 028°26'0 0.0
2016-Dec-03 01:30N 59°42' E 028°26'0 0.0
2016-Dec-03 00:30N 59°42' E 028°26'0 0.0
2016-Dec-02 23:27N 59°42' E 028°26'0 0.0
2016-Dec-02 22:33N 59°42' E 028°26'0 0.0
2016-Dec-02 21:33N 59°42' E 028°26'0 0.0
2016-Dec-02 20:33N 59°42' E 028°26'0 0.0
2016-Dec-02 19:18N 59°42' E 028°26'0 0.0
2016-Dec-02 18:33N 59°42' E 028°26'0 0.0
2016-Dec-02 17:33N 59°42' E 028°26'0 0.1
2016-Dec-02 16:33N 59°42' E 028°26'2 2.2
2016-Dec-02 15:33N 59°44' E 028°24'1010.2
2016-Dec-02 14:33N 59°54' E 028°30'4 3.9
2016-Dec-02 13:31N 59°56' E 028°37'0 0.0
2016-Dec-02 12:31N 59°56' E 028°37'0 0.0
2016-Dec-02 11:31N 59°56' E 028°37'0 0.0
2016-Dec-02 10:19N 59°56' E 028°37'0 0.0
2016-Dec-02 09:31N 59°56' E 028°37'0 0.0
2016-Dec-02 08:31N 59°56' E 028°37'0 0.0
2016-Dec-02 07:22N 59°56' E 028°37'0 0.0
2016-Dec-02 06:22N 59°56' E 028°37'0 0.0
2016-Dec-02 05:25N 59°56' E 028°37'0 0.0
2016-Dec-02 04:19N 59°56' E 028°37'0 0.0
2016-Dec-02 03:22N 59°56' E 028°37'0 0.0
2016-Dec-02 02:25N 59°56' E 028°37'0 0.0
2016-Dec-02 01:28N 59°56' E 028°37'0 0.0
2016-Dec-02 00:28N 59°56' E 028°37'0 0.0
2016-Dec-01 23:28N 59°56' E 028°37'0 0.0
2016-Dec-01 22:31N 59°56' E 028°37'0 0.0
2016-Dec-01 21:31N 59°56' E 028°37'0 0.1
2016-Dec-01 20:31N 59°56' E 028°37'0 0.1
2016-Dec-01 19:31N 59°56' E 028°37'0 0.0
2016-Dec-01 18:31N 59°56' E 028°37'0 0.0
2016-Dec-01 17:19N 59°56' E 028°37'0 0.0
2016-Dec-01 15:22N 59°56' E 028°37'0 0.0
2016-Dec-01 14:19N 59°56' E 028°37'0 0.0
2016-Dec-01 13:22N 59°56' E 028°37'0 0.0
2016-Dec-01 12:25N 59°56' E 028°37'0 0.0
2016-Dec-01 11:25N 59°56' E 028°37'0 0.0
2016-Dec-01 10:28N 59°56' E 028°37'0 0.0
2016-Dec-01 09:28N 59°56' E 028°37'0 0.0
2016-Dec-01 08:28N 59°56' E 028°37'0 0.0
2016-Dec-01 07:31N 59°56' E 028°37'0 0.1
2016-Dec-01 06:31N 59°56' E 028°37'0 0.0
2016-Dec-01 05:31N 59°56' E 028°37'0 0.0
2016-Dec-01 04:19N 59°56' E 028°37'0 0.0
2016-Dec-01 03:19N 59°56' E 028°37'0 0.0
2016-Dec-01 02:31N 59°56' E 028°37'0 0.0
2016-Dec-01 01:31N 59°56' E 028°37'0 0.0
2016-Dec-01 00:31N 59°56' E 028°37'0 0.0
2016-Nov-30 23:19N 59°56' E 028°37'0 0.0
2016-Nov-30 22:25N 59°56' E 028°37'0 0.0
2016-Nov-30 21:25N 59°56' E 028°37'0 0.0
2016-Nov-30 20:28N 59°56' E 028°37'0 0.0
2016-Nov-30 19:28N 59°56' E 028°37'0 0.1
2016-Nov-30 18:28N 59°56' E 028°37'0 0.0
2016-Nov-30 17:31N 59°56' E 028°37'0 0.0
2016-Nov-30 16:28N 59°56' E 028°37'0 0.0
2016-Nov-30 15:31N 59°56' E 028°37'0 0.0
2016-Nov-30 14:31N 59°56' E 028°37'0 0.0
2016-Nov-30 13:31N 59°56' E 028°37'0 0.0
2016-Nov-30 12:28N 59°56' E 028°37'0 0.0
2016-Nov-30 11:31N 59°56' E 028°37'0 0.0
2016-Nov-30 10:34N 59°56' E 028°37'0 0.0
2016-Nov-30 09:31N 59°56' E 028°37'0 0.0
2016-Nov-30 08:22N 59°56' E 028°37'0 0.0
2016-Nov-30 07:34N 59°56' E 028°37'0 0.0
2016-Nov-30 06:22N 59°56' E 028°37'0 0.1
2016-Nov-30 05:25N 59°56' E 028°37'0 0.0
2016-Nov-30 04:28N 59°56' E 028°37'0 0.0
2016-Nov-30 03:28N 59°56' E 028°37'0 0.0
2016-Nov-30 02:28N 59°56' E 028°37'0 0.0
2016-Nov-30 01:16N 59°56' E 028°37'0 0.0
2016-Nov-30 00:30N 59°56' E 028°37'0 0.0
2016-Nov-29 23:31N 59°56' E 028°37'0 0.0
2016-Nov-29 22:31N 59°56' E 028°37'0 0.0
2016-Nov-29 21:34N 59°56' E 028°37'0 0.0
2016-Nov-29 20:19N 59°56' E 028°37'0 0.0
2016-Nov-29 19:33N 59°56' E 028°37'0 0.1
2016-Nov-29 18:34N 59°56' E 028°37'0 0.1
2016-Nov-29 17:34N 59°56' E 028°37'0 0.5
2016-Nov-29 16:33N 59°55' E 028°37'3 3.2
2016-Nov-29 15:33N 59°58' E 028°35'9 9.2
2016-Nov-29 14:33N 60°04' E 028°21'1211.7
2016-Nov-29 13:33N 60°09' E 027°60'3611.3
2016-Nov-29 10:21N 59°59' E 026°50'9211.6
2016-Nov-29 02:26N 59°38' E 023°53'1011.3
2016-Nov-29 01:33N 59°35' E 023°34'  
Track history (hours):
 
Tides and Currents Weather Stations Pressure Air Temp Water Temp Dewpoint Dewpoint Depression Visibility Wind Speed Wind Dir Waves Ship Positions

Olib

Last reported at 2016-Dec-07 05:31 UTC. Time now 2016-Dec-07 12:35 UTC.
Position N 55°09' E 011°00'.

Length 247 m; draft 15 m.

Type: Ship. MMSI: 238252000.

Date/timePositionNaut miles runAvg speedWind from/ knotsBaromVisibWave heightAir tempDewpointWater temp
2016-Dec-07 05:31N 55°09' E 011°00'1111.2
2016-Dec-07 04:33N 54°59' E 010°58'1211.6
2016-Dec-07 03:33N 54°48' E 010°50'9 9.5
2016-Dec-07 02:33N 54°39' E 010°52'1111.0
2016-Dec-07 01:33N 54°36' E 011°11'1111.3
2016-Dec-07 00:33N 54°31' E 011°28'1211.2
2016-Dec-06 23:27N 54°26' E 011°48'1011.2
2016-Dec-06 22:33N 54°26' E 012°05'9 9.2
2016-Dec-06 21:33N 54°34' E 012°15'7 6.8
2016-Dec-06 20:32N 54°39' E 012°23'11 5.6
2016-Dec-06 18:33N 54°45' E 012°40'43 8.7
2016-Dec-06 13:33N 55°01' E 013°49'1110.8
2016-Dec-06 12:33N 55°06' E 014°06'1110.3
2016-Dec-06 11:31N 55°14' E 014°17'1111.4
2016-Dec-06 10:33N 55°23' E 014°30'1110.8
2016-Dec-06 09:33N 55°30' E 014°45'1211.3
2016-Dec-06 08:32N 55°35' E 015°03'457 9.9
2016-Dec-04 10:31N 60°01' E 026°39'4210.5
2016-Dec-04 06:33N 60°10' E 028°00'1110.6
2016-Dec-04 05:33N 60°07' E 028°20'9 9.5
2016-Dec-04 04:33N 60°03' E 028°38'8 7.8
2016-Dec-04 03:33N 59°55' E 028°33'10 9.7
2016-Dec-04 02:33N 59°47' E 028°25'4 4.4
2016-Dec-04 01:33N 59°42' E 028°26'0 0.0
2016-Dec-04 00:33N 59°42' E 028°26'0 0.0
2016-Dec-03 23:33N 59°42' E 028°26'0 0.0
2016-Dec-03 22:33N 59°42' E 028°26'0 0.0
2016-Dec-03 21:33N 59°42' E 028°26'0 0.0
2016-Dec-03 20:24N 59°42' E 028°26'0 0.0
2016-Dec-03 19:24N 59°42' E 028°26'0 0.0
2016-Dec-03 18:27N 59°42' E 028°26'0 0.0
2016-Dec-03 17:27N 59°42' E 028°26'0 0.0
2016-Dec-03 16:27N 59°42' E 028°26'0 0.0
2016-Dec-03 15:30N 59°42' E 028°26'0 0.0
2016-Dec-03 14:30N 59°42' E 028°26'0 0.0
2016-Dec-03 13:30N 59°42' E 028°26'0 0.0
2016-Dec-03 12:33N 59°42' E 028°26'0 0.0
2016-Dec-03 10:18N 59°42' E 028°26'0 0.0
2016-Dec-03 09:21N 59°42' E 028°26'0 0.0
2016-Dec-03 07:24N 59°42' E 028°26'0 0.0
2016-Dec-03 06:24N 59°42' E 028°26'0 0.0
2016-Dec-03 05:24N 59°42' E 028°26'0 0.0
2016-Dec-03 04:24N 59°42' E 028°26'0 0.0
2016-Dec-03 03:27N 59°42' E 028°26'0 0.0
2016-Dec-03 02:27N 59°42' E 028°26'0 0.0
2016-Dec-03 01:30N 59°42' E 028°26'0 0.0
2016-Dec-03 00:30N 59°42' E 028°26'0 0.0
2016-Dec-02 23:27N 59°42' E 028°26'0 0.0
2016-Dec-02 22:33N 59°42' E 028°26'0 0.0
2016-Dec-02 21:33N 59°42' E 028°26'0 0.0
2016-Dec-02 20:33N 59°42' E 028°26'0 0.0
2016-Dec-02 19:18N 59°42' E 028°26'0 0.0
2016-Dec-02 18:33N 59°42' E 028°26'0 0.0
2016-Dec-02 17:33N 59°42' E 028°26'0 0.1
2016-Dec-02 16:33N 59°42' E 028°26'2 2.2
2016-Dec-02 15:33N 59°44' E 028°24'1010.2
2016-Dec-02 14:33N 59°54' E 028°30'4 3.9
2016-Dec-02 13:31N 59°56' E 028°37'0 0.0
2016-Dec-02 12:31N 59°56' E 028°37'0 0.0
2016-Dec-02 11:31N 59°56' E 028°37'0 0.0
2016-Dec-02 10:19N 59°56' E 028°37'0 0.0
2016-Dec-02 09:31N 59°56' E 028°37'0 0.0
2016-Dec-02 08:31N 59°56' E 028°37'0 0.0
2016-Dec-02 07:22N 59°56' E 028°37'0 0.0
2016-Dec-02 06:22N 59°56' E 028°37'0 0.0
2016-Dec-02 05:25N 59°56' E 028°37'0 0.0
2016-Dec-02 04:19N 59°56' E 028°37'0 0.0
2016-Dec-02 03:22N 59°56' E 028°37'0 0.0
2016-Dec-02 02:25N 59°56' E 028°37'0 0.0
2016-Dec-02 01:28N 59°56' E 028°37'0 0.0
2016-Dec-02 00:28N 59°56' E 028°37'0 0.0
2016-Dec-01 23:28N 59°56' E 028°37'0 0.0
2016-Dec-01 22:31N 59°56' E 028°37'0 0.0
2016-Dec-01 21:31N 59°56' E 028°37'0 0.1
2016-Dec-01 20:31N 59°56' E 028°37'0 0.1
2016-Dec-01 19:31N 59°56' E 028°37'0 0.0
2016-Dec-01 18:31N 59°56' E 028°37'0 0.0
2016-Dec-01 17:19N 59°56' E 028°37'0 0.0
2016-Dec-01 15:22N 59°56' E 028°37'0 0.0
2016-Dec-01 14:19N 59°56' E 028°37'0 0.0
2016-Dec-01 13:22N 59°56' E 028°37'0 0.0
2016-Dec-01 12:25N 59°56' E 028°37'0 0.0
2016-Dec-01 11:25N 59°56' E 028°37'0 0.0
2016-Dec-01 10:28N 59°56' E 028°37'0 0.0
2016-Dec-01 09:28N 59°56' E 028°37'0 0.0
2016-Dec-01 08:28N 59°56' E 028°37'0 0.0
2016-Dec-01 07:31N 59°56' E 028°37'0 0.1
2016-Dec-01 06:31N 59°56' E 028°37'0 0.0
2016-Dec-01 05:31N 59°56' E 028°37'0 0.0
2016-Dec-01 04:19N 59°56' E 028°37'0 0.0
2016-Dec-01 03:19N 59°56' E 028°37'0 0.0
2016-Dec-01 02:31N 59°56' E 028°37'0 0.0
2016-Dec-01 01:31N 59°56' E 028°37'0 0.0
2016-Dec-01 00:31N 59°56' E 028°37'0 0.0
2016-Nov-30 23:19N 59°56' E 028°37'0 0.0
2016-Nov-30 22:25N 59°56' E 028°37'0 0.0
2016-Nov-30 21:25N 59°56' E 028°37'0 0.0
2016-Nov-30 20:28N 59°56' E 028°37'0 0.0
2016-Nov-30 19:28N 59°56' E 028°37'0 0.1
2016-Nov-30 18:28N 59°56' E 028°37'0 0.0
2016-Nov-30 17:31N 59°56' E 028°37'0 0.0
2016-Nov-30 16:28N 59°56' E 028°37'0 0.0
2016-Nov-30 15:31N 59°56' E 028°37'0 0.0
2016-Nov-30 14:31N 59°56' E 028°37'0 0.0
2016-Nov-30 13:31N 59°56' E 028°37'0 0.0
2016-Nov-30 12:28N 59°56' E 028°37'0 0.0
2016-Nov-30 11:31N 59°56' E 028°37'0 0.0
2016-Nov-30 10:34N 59°56' E 028°37'0 0.0
2016-Nov-30 09:31N 59°56' E 028°37'0 0.0
2016-Nov-30 08:22N 59°56' E 028°37'0 0.0
2016-Nov-30 07:34N 59°56' E 028°37'0 0.0
2016-Nov-30 06:22N 59°56' E 028°37'0 0.1
2016-Nov-30 05:25N 59°56' E 028°37'0 0.0
2016-Nov-30 04:28N 59°56' E 028°37'0 0.0
2016-Nov-30 03:28N 59°56' E 028°37'0 0.0
2016-Nov-30 02:28N 59°56' E 028°37'0 0.0
2016-Nov-30 01:16N 59°56' E 028°37'0 0.0
2016-Nov-30 00:30N 59°56' E 028°37'0 0.0
2016-Nov-29 23:31N 59°56' E 028°37'0 0.0
2016-Nov-29 22:31N 59°56' E 028°37'0 0.0
2016-Nov-29 21:34N 59°56' E 028°37'0 0.0
2016-Nov-29 20:19N 59°56' E 028°37'0 0.0
2016-Nov-29 19:33N 59°56' E 028°37'0 0.1
2016-Nov-29 18:34N 59°56' E 028°37'0 0.1
2016-Nov-29 17:34N 59°56' E 028°37'0 0.5
2016-Nov-29 16:33N 59°55' E 028°37'3 3.2
2016-Nov-29 15:33N 59°58' E 028°35'9 9.2
2016-Nov-29 14:33N 60°04' E 028°21'1211.7
2016-Nov-29 13:33N 60°09' E 027°60'3611.3
2016-Nov-29 10:21N 59°59' E 026°50'9211.6
2016-Nov-29 02:26N 59°38' E 023°53'1011.3
2016-Nov-29 01:33N 59°35' E 023°34'  

Dump ship's entire track history